createdAt,value
2018-03-18T00:00:18.510Z,0
2018-03-18T00:01:18.236Z,0
2018-03-18T00:02:18.476Z,0
2018-03-18T00:03:18.458Z,0
2018-03-18T00:04:17.930Z,0
2018-03-18T00:05:18.433Z,0
2018-03-18T00:06:18.418Z,0
2018-03-18T00:07:18.383Z,0
2018-03-18T00:08:18.361Z,0
2018-03-18T00:09:18.358Z,0
2018-03-18T00:10:18.332Z,0
2018-03-18T00:11:18.312Z,0
2018-03-18T00:12:18.286Z,0
2018-03-18T00:13:18.276Z,0
2018-03-18T00:14:17.996Z,0
2018-03-18T00:15:17.984Z,0
2018-03-18T00:16:18.221Z,0
2018-03-18T00:17:18.194Z,0
2018-03-18T00:18:18.192Z,0
2018-03-18T00:19:18.164Z,0
2018-03-18T00:20:18.159Z,0
2018-03-18T00:21:18.144Z,0
2018-03-18T00:22:18.162Z,0
2018-03-18T00:23:18.098Z,0
2018-03-18T00:24:18.127Z,0
2018-03-18T00:25:17.817Z,0
2018-03-18T00:26:18.034Z,0
2018-03-18T00:27:17.771Z,0
2018-03-18T00:28:18.006Z,0
2018-03-18T00:29:17.740Z,0
2018-03-18T00:30:17.711Z,0
2018-03-18T00:31:17.947Z,0
2018-03-18T00:32:17.980Z,0
2018-03-18T00:33:17.905Z,0
2018-03-18T00:34:17.893Z,0
2018-03-18T00:35:17.880Z,0
2018-03-18T00:36:17.854Z,0
2018-03-18T00:37:17.587Z,0
2018-03-18T00:38:17.824Z,0
2018-03-18T00:39:17.806Z,0
2018-03-18T00:40:17.812Z,0
2018-03-18T00:41:17.526Z,0
2018-03-18T00:42:17.746Z,0
2018-03-18T00:43:17.762Z,0
2018-03-18T00:44:17.719Z,0
2018-03-18T00:45:17.441Z,0
2018-03-18T00:46:17.677Z,0
2018-03-18T00:47:17.398Z,0
2018-03-18T00:48:17.644Z,0
2018-03-18T00:49:17.619Z,0
2018-03-18T00:50:17.603Z,0
2018-03-18T00:51:17.332Z,0
2018-03-18T00:52:17.563Z,0
2018-03-18T00:53:17.553Z,0
2018-03-18T00:54:17.680Z,0
2018-03-18T00:55:17.504Z,0
2018-03-18T00:56:17.503Z,0
2018-03-18T00:57:17.498Z,0
2018-03-18T00:58:17.451Z,0
2018-03-18T00:59:17.436Z,0
2018-03-18T01:00:17.172Z,0
2018-03-18T01:01:17.413Z,0
2018-03-18T01:02:17.393Z,0
2018-03-18T01:03:17.375Z,0
2018-03-18T01:04:17.346Z,0
2018-03-18T01:05:17.332Z,0
2018-03-18T01:06:17.054Z,0
2018-03-18T01:07:17.298Z,0
2018-03-18T01:08:17.287Z,0
2018-03-18T01:09:17.265Z,0
2018-03-18T01:10:17.230Z,0
2018-03-18T01:11:17.208Z,0
2018-03-18T01:12:17.196Z,0
2018-03-18T01:13:17.168Z,0
2018-03-18T01:14:17.223Z,0
2018-03-18T01:15:17.138Z,0
2018-03-18T01:16:17.141Z,0
2018-03-18T01:17:17.097Z,0
2018-03-18T01:18:17.091Z,0
2018-03-18T01:19:17.062Z,0
2018-03-18T01:20:17.040Z,0
2018-03-18T01:21:17.021Z,0
2018-03-18T01:22:17.014Z,0
2018-03-18T01:23:16.986Z,0
2018-03-18T01:24:16.979Z,0
2018-03-18T01:25:16.710Z,0
2018-03-18T01:26:16.936Z,0
2018-03-18T01:27:16.671Z,0
2018-03-18T01:28:16.903Z,0
2018-03-18T01:29:16.615Z,0
2018-03-18T01:30:16.605Z,0
2018-03-18T01:31:16.579Z,0
2018-03-18T01:32:16.867Z,0
2018-03-18T01:33:16.810Z,0
2018-03-18T01:34:16.778Z,0
2018-03-18T01:35:16.771Z,0
2018-03-18T01:36:16.753Z,0
2018-03-18T01:37:16.750Z,0
2018-03-18T01:38:16.719Z,0
2018-03-18T01:39:16.694Z,0
2018-03-18T01:40:16.669Z,0
2018-03-18T01:41:16.657Z,0
2018-03-18T01:42:16.630Z,0
2018-03-18T01:43:16.460Z,0
2018-03-18T01:44:16.595Z,0
2018-03-18T01:45:16.575Z,0
2018-03-18T01:46:16.315Z,0
2018-03-18T01:47:16.298Z,0
2018-03-18T01:48:16.531Z,0
2018-03-18T01:49:16.507Z,0
2018-03-18T01:50:16.487Z,0
2018-03-18T01:51:16.212Z,0
2018-03-18T01:52:16.446Z,0
2018-03-18T01:53:16.430Z,0
2018-03-18T01:54:16.417Z,0
2018-03-18T01:55:16.395Z,0
2018-03-18T01:56:16.113Z,0
2018-03-18T01:57:16.099Z,0
2018-03-18T01:58:16.349Z,0
2018-03-18T01:59:16.315Z,0
2018-03-18T02:00:16.305Z,0
2018-03-18T02:01:16.284Z,0
2018-03-18T02:02:16.266Z,0
2018-03-18T02:03:16.245Z,0
2018-03-18T02:04:16.235Z,0
2018-03-18T02:05:15.952Z,0
2018-03-18T02:06:16.207Z,0
2018-03-18T02:07:16.180Z,0
2018-03-18T02:08:16.159Z,0
2018-03-18T02:09:15.876Z,0
2018-03-18T02:10:16.124Z,0
2018-03-18T02:11:15.843Z,0
2018-03-18T02:12:16.088Z,0
2018-03-18T02:13:16.067Z,0
2018-03-18T02:14:16.051Z,0
2018-03-18T02:15:16.026Z,0
2018-03-18T02:16:15.743Z,0
2018-03-18T02:17:15.993Z,0
2018-03-18T02:18:16.007Z,0
2018-03-18T02:19:15.948Z,0
2018-03-18T02:20:15.671Z,0
2018-03-18T02:21:15.906Z,0
2018-03-18T02:22:15.636Z,0
2018-03-18T02:23:15.878Z,0
2018-03-18T02:24:15.350Z,0
2018-03-18T02:25:15.833Z,0
2018-03-18T02:26:15.045Z,0
2018-03-18T02:27:15.793Z,0
2018-03-18T02:28:15.781Z,0
2018-03-18T02:29:15.505Z,0
2018-03-18T02:30:15.492Z,0
2018-03-18T02:31:15.748Z,0
2018-03-18T02:32:15.456Z,0
2018-03-18T02:33:15.702Z,0
2018-03-18T02:34:15.416Z,0
2018-03-18T02:35:15.401Z,0
2018-03-18T02:36:15.648Z,0
2018-03-18T02:37:15.386Z,0
2018-03-18T02:38:15.333Z,0
2018-03-18T02:39:15.333Z,0
2018-03-18T02:40:15.567Z,0
2018-03-18T02:41:15.283Z,0
2018-03-18T02:42:14.750Z,0
2018-03-18T02:43:15.517Z,0
2018-03-18T02:44:15.485Z,0
2018-03-18T02:45:15.460Z,0
2018-03-18T02:46:14.937Z,0
2018-03-18T02:47:15.198Z,0
2018-03-18T02:48:15.156Z,0
2018-03-18T02:49:15.129Z,0
2018-03-18T02:50:15.113Z,0
2018-03-18T02:51:14.836Z,0
2018-03-18T02:52:15.069Z,0
2018-03-18T02:53:15.320Z,0
2018-03-18T02:54:15.049Z,0
2018-03-18T02:55:15.109Z,0
2018-03-18T02:56:15.019Z,0
2018-03-18T02:57:15.245Z,0
2018-03-18T02:58:14.965Z,0
2018-03-18T02:59:14.948Z,0
2018-03-18T03:00:15.181Z,0
2018-03-18T03:01:15.162Z,0
2018-03-18T03:02:14.905Z,0
2018-03-18T03:03:14.891Z,0
2018-03-18T03:04:14.862Z,0
2018-03-18T03:05:14.844Z,0
2018-03-18T03:06:14.846Z,0
2018-03-18T03:07:14.801Z,0
2018-03-18T03:08:15.068Z,0
2018-03-18T03:09:15.021Z,0
2018-03-18T03:10:14.726Z,0
2018-03-18T03:11:14.456Z,0
2018-03-18T03:12:14.709Z,0
2018-03-18T03:13:14.941Z,0
2018-03-18T03:14:14.668Z,0
2018-03-18T03:15:14.905Z,0
2018-03-18T03:16:14.629Z,0
2018-03-18T03:17:14.869Z,0
2018-03-18T03:18:14.581Z,0
2018-03-18T03:19:14.815Z,0
2018-03-18T03:20:14.806Z,0
2018-03-18T03:21:14.525Z,0
2018-03-18T03:22:14.243Z,0
2018-03-18T03:23:14.740Z,0
2018-03-18T03:24:14.502Z,0
2018-03-18T03:25:14.710Z,0
2018-03-18T03:26:14.431Z,0
2018-03-18T03:27:14.412Z,0
2018-03-18T03:28:14.392Z,0
2018-03-18T03:29:14.625Z,0
2018-03-18T03:30:14.622Z,0
2018-03-18T03:31:14.599Z,0
2018-03-18T03:32:14.579Z,0
2018-03-18T03:33:14.636Z,0
2018-03-18T03:34:14.673Z,0
2018-03-18T03:35:14.258Z,0
2018-03-18T03:36:14.506Z,0
2018-03-18T03:37:14.219Z,0
2018-03-18T03:38:14.210Z,0
2018-03-18T03:39:14.179Z,0
2018-03-18T03:40:14.422Z,0
2018-03-18T03:41:14.399Z,0
2018-03-18T03:42:14.373Z,0
2018-03-18T03:43:14.375Z,0
2018-03-18T03:44:14.342Z,0
2018-03-18T03:45:14.337Z,0
2018-03-18T03:46:14.302Z,0
2018-03-18T03:47:14.285Z,0
2018-03-18T03:48:14.010Z,0
2018-03-18T03:49:13.988Z,0
2018-03-18T03:50:13.974Z,0
2018-03-18T03:51:14.211Z,0
2018-03-18T03:52:14.191Z,0
2018-03-18T03:53:14.231Z,0
2018-03-18T03:54:14.148Z,0
2018-03-18T03:55:14.132Z,0
2018-03-18T03:56:13.877Z,0
2018-03-18T03:57:14.111Z,0
2018-03-18T03:58:14.078Z,0
2018-03-18T03:59:14.071Z,0
2018-03-18T04:00:14.067Z,0
2018-03-18T04:01:13.769Z,0
2018-03-18T04:02:13.998Z,0
2018-03-18T04:03:13.999Z,0
2018-03-18T04:04:13.960Z,0
2018-03-18T04:05:13.951Z,0
2018-03-18T04:06:13.930Z,0
2018-03-18T04:07:13.912Z,0
2018-03-18T04:08:13.880Z,0
2018-03-18T04:09:13.869Z,0
2018-03-18T04:10:13.847Z,0
2018-03-18T04:11:13.832Z,0
2018-03-18T04:12:13.806Z,0
2018-03-18T04:13:13.791Z,0
2018-03-18T04:14:13.762Z,0
2018-03-18T04:15:13.496Z,0
2018-03-18T04:16:13.727Z,0
2018-03-18T04:17:13.716Z,0
2018-03-18T04:18:13.444Z,0
2018-03-18T04:19:13.673Z,0
2018-03-18T04:20:13.402Z,0
2018-03-18T04:21:13.381Z,0
2018-03-18T04:22:12.851Z,0
2018-03-18T04:23:13.344Z,0
2018-03-18T04:24:13.581Z,0
2018-03-18T04:25:13.073Z,0
2018-03-18T04:26:13.288Z,0
2018-03-18T04:27:13.530Z,0
2018-03-18T04:28:13.513Z,0
2018-03-18T04:29:13.484Z,0
2018-03-18T04:30:13.204Z,0
2018-03-18T04:31:13.203Z,0
2018-03-18T04:32:13.428Z,0
2018-03-18T04:33:12.890Z,0
2018-03-18T04:34:13.380Z,0
2018-03-18T04:35:12.855Z,0
2018-03-18T04:36:12.854Z,0
2018-03-18T04:37:13.332Z,0
2018-03-18T04:38:12.792Z,0
2018-03-18T04:39:13.302Z,0
2018-03-18T04:40:13.011Z,0
2018-03-18T04:41:12.763Z,0
2018-03-18T04:42:12.973Z,0
2018-03-18T04:43:12.959Z,0
2018-03-18T04:44:13.220Z,0
2018-03-18T04:45:13.189Z,0
2018-03-18T04:46:12.646Z,0
2018-03-18T04:47:12.883Z,0
2018-03-18T04:48:12.604Z,0
2018-03-18T04:49:12.876Z,0
2018-03-18T04:50:12.828Z,0
2018-03-18T04:51:13.057Z,0
2018-03-18T04:52:13.178Z,0
2018-03-18T04:53:13.032Z,0
2018-03-18T04:54:13.008Z,0
2018-03-18T04:55:12.730Z,0
2018-03-18T04:56:12.711Z,0
2018-03-18T04:57:12.694Z,0
2018-03-18T04:58:12.927Z,0
2018-03-18T04:59:12.694Z,0
2018-03-18T05:00:12.905Z,0
2018-03-18T05:01:12.876Z,0
2018-03-18T05:02:12.871Z,5
2018-03-18T05:03:12.584Z,5
2018-03-18T05:04:12.812Z,5
2018-03-18T05:05:12.808Z,5
2018-03-18T05:06:12.520Z,5
2018-03-18T05:07:12.760Z,5
2018-03-18T05:08:12.730Z,10
2018-03-18T05:09:12.707Z,10
2018-03-18T05:10:12.441Z,10
2018-03-18T05:11:12.695Z,10
2018-03-18T05:12:12.400Z,10
2018-03-18T05:13:12.395Z,15
2018-03-18T05:14:12.360Z,15
2018-03-18T05:15:12.602Z,15
2018-03-18T05:16:12.324Z,15
2018-03-18T05:17:12.555Z,20
2018-03-18T05:18:12.549Z,20
2018-03-18T05:19:12.274Z,20
2018-03-18T05:20:12.247Z,25
2018-03-18T05:21:12.491Z,25
2018-03-18T05:22:12.219Z,30
2018-03-18T05:23:11.931Z,30
2018-03-18T05:24:12.440Z,30
2018-03-18T05:25:11.897Z,35
2018-03-18T05:26:12.130Z,35
2018-03-18T05:27:12.378Z,35
2018-03-18T05:28:12.349Z,40
2018-03-18T05:29:12.334Z,40
2018-03-18T05:30:11.813Z,45
2018-03-18T05:31:11.777Z,45
2018-03-18T05:32:12.281Z,50
2018-03-18T05:33:11.997Z,50
2018-03-18T05:34:12.237Z,55
2018-03-18T05:35:12.214Z,50
2018-03-18T05:36:12.198Z,60
2018-03-18T05:37:11.918Z,65
2018-03-18T05:38:12.162Z,70
2018-03-18T05:39:11.926Z,70
2018-03-18T05:40:11.867Z,70
2018-03-18T05:41:12.152Z,75
2018-03-18T05:42:11.823Z,75
2018-03-18T05:43:11.807Z,85
2018-03-18T05:44:12.044Z,90
2018-03-18T05:45:12.024Z,95
2018-03-18T05:46:11.760Z,95
2018-03-18T05:47:11.216Z,95
2018-03-18T05:48:11.719Z,100
2018-03-18T05:49:11.963Z,100
2018-03-18T05:50:11.671Z,110
2018-03-18T05:51:11.659Z,115
2018-03-18T05:52:11.902Z,130
2018-03-18T05:53:11.614Z,135
2018-03-18T05:54:11.852Z,135
2018-03-18T05:55:11.845Z,135
2018-03-18T05:56:11.564Z,140
2018-03-18T05:57:11.555Z,145
2018-03-18T05:58:11.527Z,150
2018-03-18T05:59:11.507Z,155
2018-03-18T06:00:11.493Z,160
2018-03-18T06:01:11.479Z,170
2018-03-18T06:02:11.204Z,180
2018-03-18T06:03:10.936Z,185
2018-03-18T06:04:10.950Z,190
2018-03-18T06:05:11.404Z,190
2018-03-18T06:06:11.388Z,190
2018-03-18T06:07:11.372Z,200
2018-03-18T06:08:11.104Z,205
2018-03-18T06:09:11.591Z,195
2018-03-18T06:10:11.321Z,200
2018-03-18T06:11:11.573Z,215
2018-03-18T06:12:10.779Z,230
2018-03-18T06:13:11.534Z,230
2018-03-18T06:14:11.006Z,235
2018-03-18T06:15:10.983Z,235
2018-03-18T06:16:11.489Z,235
2018-03-18T06:17:10.755Z,235
2018-03-18T06:18:11.628Z,235
2018-03-18T06:19:11.176Z,230
2018-03-18T06:20:11.168Z,230
2018-03-18T06:21:11.141Z,240
2018-03-18T06:22:11.394Z,235
2018-03-18T06:23:11.112Z,235
2018-03-18T06:24:11.100Z,225
2018-03-18T06:25:11.434Z,230
2018-03-18T06:26:11.061Z,235
2018-03-18T06:27:11.303Z,230
2018-03-18T06:28:10.522Z,235
2018-03-18T06:29:10.516Z,250
2018-03-18T06:30:10.496Z,260
2018-03-18T06:31:10.998Z,270
2018-03-18T06:32:10.967Z,285
2018-03-18T06:33:11.227Z,290
2018-03-18T06:34:10.952Z,295
2018-03-18T06:35:10.670Z,295
2018-03-18T06:36:10.917Z,285
2018-03-18T06:37:10.647Z,290
2018-03-18T06:38:11.140Z,295
2018-03-18T06:39:11.125Z,325
2018-03-18T06:40:10.848Z,320
2018-03-18T06:41:10.581Z,340
2018-03-18T06:42:10.573Z,330
2018-03-18T06:43:10.810Z,315
2018-03-18T06:44:10.788Z,315
2018-03-18T06:45:10.779Z,345
2018-03-18T06:46:11.021Z,370
2018-03-18T06:47:11.008Z,390
2018-03-18T06:48:10.216Z,390
2018-03-18T06:49:10.455Z,405
2018-03-18T06:50:10.955Z,410
2018-03-18T06:51:10.429Z,415
2018-03-18T06:52:10.414Z,435
2018-03-18T06:53:10.907Z,440
2018-03-18T06:54:10.639Z,455
2018-03-18T06:55:10.643Z,470
2018-03-18T06:56:10.874Z,475
2018-03-18T06:57:10.082Z,485
2018-03-18T06:58:10.848Z,495
2018-03-18T06:59:10.823Z,500
2018-03-18T07:00:10.302Z,500
2018-03-18T07:01:10.286Z,500
2018-03-18T07:02:10.786Z,505
2018-03-18T07:03:10.512Z,520
2018-03-18T07:04:10.238Z,525
2018-03-18T07:05:10.502Z,530
2018-03-18T07:06:10.472Z,530
2018-03-18T07:07:10.498Z,530
2018-03-18T07:08:10.183Z,535
2018-03-18T07:09:10.698Z,535
2018-03-18T07:10:10.679Z,565
2018-03-18T07:11:10.157Z,610
2018-03-18T07:12:10.650Z,645
2018-03-18T07:13:10.483Z,685
2018-03-18T07:14:10.367Z,705
2018-03-18T07:15:10.616Z,735
2018-03-18T07:16:10.350Z,740
2018-03-18T07:17:10.326Z,775
2018-03-18T07:18:10.057Z,780
2018-03-18T07:19:10.304Z,805
2018-03-18T07:20:10.101Z,810
2018-03-18T07:21:10.283Z,825
2018-03-18T07:22:10.522Z,845
2018-03-18T07:23:10.503Z,855
2018-03-18T07:24:10.496Z,870
2018-03-18T07:25:09.728Z,900
2018-03-18T07:26:10.470Z,900
2018-03-18T07:27:10.211Z,905
2018-03-18T07:28:10.200Z,915
2018-03-18T07:29:10.240Z,920
2018-03-18T07:30:09.411Z,930
2018-03-18T07:31:10.435Z,915
2018-03-18T07:32:09.903Z,905
2018-03-18T07:33:10.612Z,965
2018-03-18T07:34:10.403Z,965
2018-03-18T07:35:10.385Z,970
2018-03-18T07:36:10.373Z,975
2018-03-18T07:37:10.102Z,865
2018-03-18T07:38:10.411Z,695
2018-03-18T07:39:10.145Z,725
2018-03-18T07:40:10.070Z,730
2018-03-18T07:41:09.803Z,730
2018-03-18T07:42:10.215Z,745
2018-03-18T07:43:10.050Z,770
2018-03-18T07:44:10.038Z,770
2018-03-18T07:45:10.016Z,785
2018-03-18T07:46:09.750Z,780
2018-03-18T07:47:09.996Z,790
2018-03-18T07:48:09.986Z,785
2018-03-18T07:49:09.988Z,795
2018-03-18T07:50:09.962Z,695
2018-03-18T07:51:10.212Z,800
2018-03-18T07:52:09.697Z,815
2018-03-18T07:53:09.682Z,820
2018-03-18T07:54:09.932Z,825
2018-03-18T07:55:10.182Z,840
2018-03-18T07:56:09.913Z,850
2018-03-18T07:57:10.147Z,865
2018-03-18T07:58:10.133Z,870
2018-03-18T07:59:09.879Z,880
2018-03-18T08:00:09.865Z,890
2018-03-18T08:01:10.127Z,900
2018-03-18T08:02:10.149Z,900
2018-03-18T08:03:09.578Z,895
2018-03-18T08:04:09.831Z,855
2018-03-18T08:05:10.090Z,850
2018-03-18T08:06:09.800Z,890
2018-03-18T08:07:09.785Z,900
2018-03-18T08:08:10.037Z,895
2018-03-18T08:09:10.027Z,765
2018-03-18T08:10:09.508Z,435
2018-03-18T08:11:09.743Z,250
2018-03-18T08:12:09.736Z,240
2018-03-18T08:13:09.725Z,235
2018-03-18T08:14:09.577Z,235
2018-03-18T08:15:09.716Z,235
2018-03-18T08:16:09.947Z,235
2018-03-18T08:17:08.905Z,235
2018-03-18T08:18:09.655Z,235
2018-03-18T08:19:09.902Z,235
2018-03-18T08:20:09.972Z,235
2018-03-18T08:21:09.682Z,235
2018-03-18T08:22:09.873Z,235
2018-03-18T08:23:09.881Z,235
2018-03-18T08:24:09.842Z,230
2018-03-18T08:25:09.848Z,230
2018-03-18T08:26:09.563Z,230
2018-03-18T08:27:09.796Z,230
2018-03-18T08:28:09.278Z,230
2018-03-18T08:29:09.764Z,230
2018-03-18T08:30:09.756Z,230
2018-03-18T08:31:09.724Z,230
2018-03-18T08:32:09.727Z,225
2018-03-18T08:33:09.435Z,225
2018-03-18T08:34:09.425Z,225
2018-03-18T08:35:08.895Z,225
2018-03-18T08:36:09.667Z,225
2018-03-18T08:37:09.629Z,225
2018-03-18T08:38:09.365Z,220
2018-03-18T08:39:08.835Z,220
2018-03-18T08:40:09.586Z,220
2018-03-18T08:41:09.565Z,220
2018-03-18T08:42:09.559Z,225
2018-03-18T08:43:09.027Z,225
2018-03-18T08:44:09.003Z,225
2018-03-18T08:45:09.256Z,225
2018-03-18T08:46:09.253Z,220
2018-03-18T08:47:09.223Z,220
2018-03-18T08:48:09.215Z,220
2018-03-18T08:49:09.441Z,220
2018-03-18T08:50:08.924Z,220
2018-03-18T08:51:08.892Z,220
2018-03-18T08:52:08.876Z,220
2018-03-18T08:53:08.864Z,220
2018-03-18T08:54:09.111Z,220
2018-03-18T08:55:08.834Z,220
2018-03-18T08:56:08.811Z,220
2018-03-18T08:57:09.052Z,220
2018-03-18T08:58:09.028Z,220
2018-03-18T08:59:09.022Z,220
2018-03-18T09:00:08.493Z,220
2018-03-18T09:01:09.001Z,220
2018-03-18T09:02:09.229Z,215
2018-03-18T09:03:08.709Z,215
2018-03-18T09:04:08.939Z,215
2018-03-18T09:05:09.184Z,215
2018-03-18T09:06:09.172Z,215
2018-03-18T09:07:08.891Z,215
2018-03-18T09:08:08.872Z,215
2018-03-18T09:09:08.852Z,215
2018-03-18T09:10:08.839Z,215
2018-03-18T09:11:08.573Z,215
2018-03-18T09:12:09.071Z,215
2018-03-18T09:13:08.546Z,215
2018-03-18T09:14:08.529Z,215
2018-03-18T09:15:08.502Z,210
2018-03-18T09:16:08.999Z,210
2018-03-18T09:17:08.719Z,210
2018-03-18T09:18:08.712Z,210
2018-03-18T09:19:08.777Z,210
2018-03-18T09:20:08.934Z,210
2018-03-18T09:21:08.402Z,210
2018-03-18T09:22:08.653Z,210
2018-03-18T09:23:08.747Z,210
2018-03-18T09:24:08.605Z,210
2018-03-18T09:25:08.596Z,210
2018-03-18T09:26:08.627Z,210
2018-03-18T09:27:08.298Z,210
2018-03-18T09:28:08.563Z,210
2018-03-18T09:29:08.796Z,210
2018-03-18T09:30:08.543Z,210
2018-03-18T09:31:08.500Z,210
2018-03-18T09:32:08.482Z,210
2018-03-18T09:33:08.461Z,210
2018-03-18T09:34:08.444Z,210
2018-03-18T09:35:08.716Z,215
2018-03-18T09:36:08.422Z,210
2018-03-18T09:37:08.151Z,205
2018-03-18T09:38:08.636Z,205
2018-03-18T09:39:07.852Z,205
2018-03-18T09:40:08.106Z,205
2018-03-18T09:41:08.340Z,205
2018-03-18T09:42:08.570Z,205
2018-03-18T09:43:08.558Z,205
2018-03-18T09:44:08.541Z,200
2018-03-18T09:45:08.012Z,205
2018-03-18T09:46:08.515Z,205
2018-03-18T09:47:08.264Z,205
2018-03-18T09:48:08.499Z,205
2018-03-18T09:49:08.175Z,205
2018-03-18T09:50:07.675Z,200
2018-03-18T09:51:08.427Z,200
2018-03-18T09:52:07.897Z,200
2018-03-18T09:53:08.149Z,200
2018-03-18T09:54:08.124Z,200
2018-03-18T09:55:08.109Z,200
2018-03-18T09:56:08.360Z,200
2018-03-18T09:57:08.333Z,200
2018-03-18T09:58:08.071Z,200
2018-03-18T09:59:08.060Z,200
2018-03-18T10:00:07.786Z,200
2018-03-18T10:01:08.019Z,200
2018-03-18T10:02:08.275Z,200
2018-03-18T10:03:07.726Z,200
2018-03-18T10:04:07.457Z,200
2018-03-18T10:05:07.703Z,200
2018-03-18T10:06:07.945Z,200
2018-03-18T10:07:08.173Z,195
2018-03-18T10:08:07.389Z,195
2018-03-18T10:09:08.148Z,195
2018-03-18T10:10:07.611Z,195
2018-03-18T10:11:08.114Z,195
2018-03-18T10:12:07.844Z,195
2018-03-18T10:13:07.818Z,195
2018-03-18T10:14:07.996Z,195
2018-03-18T10:15:07.808Z,195
2018-03-18T10:16:07.776Z,195
2018-03-18T10:17:07.992Z,195
2018-03-18T10:18:07.765Z,195
2018-03-18T10:19:08.007Z,195
2018-03-18T10:20:07.517Z,190
2018-03-18T10:21:07.716Z,190
2018-03-18T10:22:07.685Z,190
2018-03-18T10:23:07.691Z,190
2018-03-18T10:24:07.651Z,190
2018-03-18T10:25:07.906Z,190
2018-03-18T10:26:07.630Z,190
2018-03-18T10:27:07.866Z,190
2018-03-18T10:28:07.587Z,190
2018-03-18T10:29:07.822Z,190
2018-03-18T10:30:07.582Z,190
2018-03-18T10:31:07.044Z,190
2018-03-18T10:32:07.795Z,190
2018-03-18T10:33:07.505Z,190
2018-03-18T10:34:07.751Z,190
2018-03-18T10:35:07.493Z,190
2018-03-18T10:36:07.736Z,190
2018-03-18T10:37:07.713Z,190
2018-03-18T10:38:07.748Z,190
2018-03-18T10:39:07.409Z,195
2018-03-18T10:40:07.423Z,190
2018-03-18T10:41:07.632Z,190
2018-03-18T10:42:07.493Z,195
2018-03-18T10:43:07.612Z,195
2018-03-18T10:44:07.590Z,195
2018-03-18T10:45:06.858Z,195
2018-03-18T10:46:07.559Z,195
2018-03-18T10:47:07.573Z,195
2018-03-18T10:48:07.533Z,190
2018-03-18T10:49:07.561Z,190
2018-03-18T10:50:07.498Z,190
2018-03-18T10:51:07.232Z,190
2018-03-18T10:52:07.227Z,190
2018-03-18T10:53:07.194Z,190
2018-03-18T10:54:07.175Z,190
2018-03-18T10:55:07.428Z,190
2018-03-18T10:56:07.404Z,190
2018-03-18T10:57:07.420Z,190
2018-03-18T10:58:07.395Z,190
2018-03-18T10:59:07.359Z,190
2018-03-18T11:00:07.358Z,185
2018-03-18T11:01:06.552Z,185
2018-03-18T11:02:07.308Z,185
2018-03-18T11:03:06.799Z,185
2018-03-18T11:04:07.316Z,185
2018-03-18T11:05:07.013Z,185
2018-03-18T11:06:07.271Z,185
2018-03-18T11:07:07.249Z,190
2018-03-18T11:08:07.223Z,185
2018-03-18T11:09:06.863Z,185
2018-03-18T11:10:07.183Z,185
2018-03-18T11:11:07.166Z,185
2018-03-18T11:12:06.924Z,185
2018-03-18T11:13:07.198Z,185
2018-03-18T11:14:07.128Z,185
2018-03-18T11:15:06.919Z,185
2018-03-18T11:16:07.253Z,185
2018-03-18T11:17:06.564Z,185
2018-03-18T11:18:06.830Z,185
2018-03-18T11:19:06.824Z,185
2018-03-18T11:20:07.026Z,185
2018-03-18T11:21:06.522Z,185
2018-03-18T11:22:06.741Z,185
2018-03-18T11:23:06.469Z,185
2018-03-18T11:24:06.716Z,185
2018-03-18T11:25:06.986Z,180
2018-03-18T11:26:06.442Z,180
2018-03-18T11:27:06.967Z,180
2018-03-18T11:28:06.648Z,180
2018-03-18T11:29:06.899Z,180
2018-03-18T11:30:06.677Z,180
2018-03-18T11:31:06.352Z,180
2018-03-18T11:32:06.592Z,180
2018-03-18T11:33:06.848Z,180
2018-03-18T11:34:06.838Z,180
2018-03-18T11:35:06.564Z,180
2018-03-18T11:36:06.791Z,180
2018-03-18T11:37:06.793Z,180
2018-03-18T11:38:06.519Z,180
2018-03-18T11:39:06.523Z,180
2018-03-18T11:40:06.476Z,180
2018-03-18T11:41:05.943Z,180
2018-03-18T11:42:06.463Z,180
2018-03-18T11:43:06.465Z,180
2018-03-18T11:44:06.143Z,180
2018-03-18T11:45:06.137Z,180
2018-03-18T11:46:06.384Z,180
2018-03-18T11:47:06.632Z,180
2018-03-18T11:48:06.634Z,180
2018-03-18T11:49:06.591Z,180
2018-03-18T11:50:06.570Z,175
2018-03-18T11:51:06.073Z,175
2018-03-18T11:52:06.540Z,175
2018-03-18T11:53:06.275Z,175
2018-03-18T11:54:06.273Z,175
2018-03-18T11:55:06.499Z,175
2018-03-18T11:56:06.584Z,175
2018-03-18T11:57:06.490Z,175
2018-03-18T11:58:05.940Z,175
2018-03-18T11:59:06.181Z,175
2018-03-18T12:00:06.162Z,175
2018-03-18T12:01:06.470Z,175
2018-03-18T12:02:06.139Z,175
2018-03-18T12:03:06.381Z,175
2018-03-18T12:04:06.102Z,175
2018-03-18T12:05:06.119Z,175
2018-03-18T12:06:06.127Z,175
2018-03-18T12:07:06.119Z,175
2018-03-18T12:08:06.048Z,175
2018-03-18T12:09:05.779Z,175
2018-03-18T12:10:05.754Z,175
2018-03-18T12:11:05.996Z,175
2018-03-18T12:12:06.261Z,175
2018-03-18T12:13:06.242Z,175
2018-03-18T12:14:05.971Z,175
2018-03-18T12:15:05.951Z,170
2018-03-18T12:16:05.946Z,170
2018-03-18T12:17:05.927Z,170
2018-03-18T12:18:06.158Z,170
2018-03-18T12:19:06.144Z,170
2018-03-18T12:20:05.610Z,170
2018-03-18T12:21:06.121Z,170
2018-03-18T12:22:06.113Z,170
2018-03-18T12:23:05.850Z,170
2018-03-18T12:24:06.088Z,170
2018-03-18T12:25:05.026Z,170
2018-03-18T12:26:06.044Z,170
2018-03-18T12:27:05.848Z,170
2018-03-18T12:28:06.200Z,170
2018-03-18T12:29:05.736Z,170
2018-03-18T12:30:05.726Z,170
2018-03-18T12:31:05.988Z,170
2018-03-18T12:32:05.188Z,170
2018-03-18T12:33:05.168Z,170
2018-03-18T12:34:05.401Z,170
2018-03-18T12:35:05.906Z,170
2018-03-18T12:36:05.878Z,170
2018-03-18T12:37:05.652Z,170
2018-03-18T12:38:05.608Z,170
2018-03-18T12:39:05.903Z,170
2018-03-18T12:40:05.570Z,170
2018-03-18T12:41:05.807Z,170
2018-03-18T12:42:05.790Z,170
2018-03-18T12:43:05.799Z,170
2018-03-18T12:44:05.516Z,170
2018-03-18T12:45:05.233Z,170
2018-03-18T12:46:05.468Z,170
2018-03-18T12:47:05.214Z,165
2018-03-18T12:48:05.448Z,165
2018-03-18T12:49:05.433Z,165
2018-03-18T12:50:05.686Z,165
2018-03-18T12:51:05.665Z,165
2018-03-18T12:52:05.145Z,165
2018-03-18T12:53:05.632Z,165
2018-03-18T12:54:05.104Z,165
2018-03-18T12:55:05.360Z,165
2018-03-18T12:56:05.585Z,165
2018-03-18T12:57:05.332Z,165
2018-03-18T12:58:05.563Z,165
2018-03-18T12:59:05.542Z,165
2018-03-18T13:00:05.029Z,165
2018-03-18T13:01:05.252Z,165
2018-03-18T13:02:05.242Z,165
2018-03-18T13:03:05.471Z,165
2018-03-18T13:04:05.470Z,165
2018-03-18T13:05:05.202Z,165
2018-03-18T13:06:04.959Z,165
2018-03-18T13:07:05.157Z,165
2018-03-18T13:08:05.158Z,165
2018-03-18T13:09:05.403Z,165
2018-03-18T13:10:04.866Z,165
2018-03-18T13:11:05.418Z,165
2018-03-18T13:12:05.347Z,165
2018-03-18T13:13:05.335Z,165
2018-03-18T13:14:05.115Z,165
2018-03-18T13:15:05.313Z,165
2018-03-18T13:16:05.282Z,165
2018-03-18T13:17:05.293Z,165
2018-03-18T13:18:05.364Z,165
2018-03-18T13:19:05.281Z,165
2018-03-18T13:20:05.225Z,165
2018-03-18T13:21:04.951Z,165
2018-03-18T13:22:04.452Z,165
2018-03-18T13:23:05.179Z,165
2018-03-18T13:24:04.916Z,165
2018-03-18T13:25:05.246Z,165
2018-03-18T13:26:05.129Z,165
2018-03-18T13:27:05.133Z,165
2018-03-18T13:28:05.102Z,160
2018-03-18T13:29:04.580Z,160
2018-03-18T13:30:05.076Z,160
2018-03-18T13:31:04.806Z,160
2018-03-18T13:32:04.786Z,160
2018-03-18T13:33:05.046Z,160
2018-03-18T13:34:05.035Z,160
2018-03-18T13:35:04.480Z,160
2018-03-18T13:36:04.807Z,160
2018-03-18T13:37:05.000Z,160
2018-03-18T13:38:04.966Z,160
2018-03-18T13:39:04.697Z,160
2018-03-18T13:40:04.416Z,160
2018-03-18T13:41:04.664Z,160
2018-03-18T13:42:04.643Z,160
2018-03-18T13:43:04.905Z,160
2018-03-18T13:44:04.614Z,160
2018-03-18T13:45:04.602Z,160
2018-03-18T13:46:04.593Z,160
2018-03-18T13:47:04.828Z,160
2018-03-18T13:48:04.854Z,160
2018-03-18T13:49:04.801Z,160
2018-03-18T13:50:04.776Z,160
2018-03-18T13:51:04.790Z,160
2018-03-18T13:52:04.493Z,160
2018-03-18T13:53:04.494Z,160
2018-03-18T13:54:04.719Z,160
2018-03-18T13:55:04.648Z,160
2018-03-18T13:56:04.448Z,155
2018-03-18T13:57:04.699Z,155
2018-03-18T13:58:04.680Z,155
2018-03-18T13:59:04.648Z,155
2018-03-18T14:00:04.399Z,155
2018-03-18T14:01:04.631Z,155
2018-03-18T14:02:04.362Z,155
2018-03-18T14:03:04.329Z,155
2018-03-18T14:04:04.326Z,155
2018-03-18T14:05:04.314Z,155
2018-03-18T14:06:04.307Z,155
2018-03-18T14:07:04.271Z,155
2018-03-18T14:08:04.260Z,155